sensor_id;sensor_type;location;lat;lon;timestamp;P1;durP1;ratioP1;P2;durP2;ratioP2
20954;SDS011;10636;19.390;-99.256;2023-04-25T00:01:06;10.15;;;9.15;;
20954;SDS011;10636;19.390;-99.256;2023-04-25T00:03:38;10.68;;;9.68;;
20954;SDS011;10636;19.390;-99.256;2023-04-25T00:06:07;10.40;;;9.50;;
20954;SDS011;10636;19.390;-99.256;2023-04-25T00:08:37;10.18;;;9.18;;
20954;SDS011;10636;19.390;-99.256;2023-04-25T00:11:06;9.57;;;8.57;;
20954;SDS011;10636;19.390;-99.256;2023-04-25T00:13:34;9.05;;;8.15;;
20954;SDS011;10636;19.390;-99.256;2023-04-25T00:16:03;9.45;;;8.55;;
20954;SDS011;10636;19.390;-99.256;2023-04-25T00:18:32;9.18;;;8.27;;
20954;SDS011;10636;19.390;-99.256;2023-04-25T00:21:00;9.50;;;8.50;;
20954;SDS011;10636;19.390;-99.256;2023-04-25T00:23:31;9.00;;;8.30;;
20954;SDS011;10636;19.390;-99.256;2023-04-25T00:26:03;9.15;;;8.30;;
20954;SDS011;10636;19.390;-99.256;2023-04-25T00:28:32;9.50;;;8.60;;
20954;SDS011;10636;19.390;-99.256;2023-04-25T00:31:00;9.20;;;8.30;;
20954;SDS011;10636;19.390;-99.256;2023-04-25T00:33:29;8.85;;;7.95;;
20954;SDS011;10636;19.390;-99.256;2023-04-25T00:35:57;9.52;;;8.73;;
20954;SDS011;10636;19.390;-99.256;2023-04-25T00:38:26;8.77;;;8.07;;
20954;SDS011;10636;19.390;-99.256;2023-04-25T00:40:54;8.70;;;7.90;;
20954;SDS011;10636;19.390;-99.256;2023-04-25T00:43:25;9.20;;;8.32;;
20954;SDS011;10636;19.390;-99.256;2023-04-25T00:45:54;10.18;;;7.93;;
20954;SDS011;10636;19.390;-99.256;2023-04-25T00:48:24;9.05;;;8.15;;
20954;SDS011;10636;19.390;-99.256;2023-04-25T00:50:53;9.38;;;8.45;;
20954;SDS011;10636;19.390;-99.256;2023-04-25T00:53:24;9.25;;;8.38;;
20954;SDS011;10636;19.390;-99.256;2023-04-25T00:55:55;8.98;;;8.25;;
20954;SDS011;10636;19.390;-99.256;2023-04-25T00:58:25;9.00;;;8.20;;
20954;SDS011;10636;19.390;-99.256;2023-04-25T01:00:54;9.82;;;8.93;;
20954;SDS011;10636;19.390;-99.256;2023-04-25T01:03:25;9.27;;;8.48;;
20954;SDS011;10636;19.390;-99.256;2023-04-25T01:05:55;9.13;;;8.23;;
20954;SDS011;10636;19.390;-99.256;2023-04-25T01:08:24;9.38;;;8.48;;
20954;SDS011;10636;19.390;-99.256;2023-04-25T01:10:52;9.18;;;8.38;;
20954;SDS011;10636;19.390;-99.256;2023-04-25T01:13:21;10.90;;;8.60;;
20954;SDS011;10636;19.390;-99.256;2023-04-25T01:15:51;8.75;;;7.90;;
20954;SDS011;10636;19.390;-99.256;2023-04-25T01:18:20;9.50;;;8.63;;
20954;SDS011;10636;19.390;-99.256;2023-04-25T01:20:49;9.32;;;8.43;;
20954;SDS011;10636;19.390;-99.256;2023-04-25T01:23:21;9.93;;;9.13;;
20954;SDS011;10636;19.390;-99.256;2023-04-25T01:25:50;9.23;;;8.32;;
20954;SDS011;10636;19.390;-99.256;2023-04-25T01:28:19;9.60;;;8.70;;
20954;SDS011;10636;19.390;-99.256;2023-04-25T01:30:48;9.18;;;8.30;;
20954;SDS011;10636;19.390;-99.256;2023-04-25T01:33:17;9.77;;;8.88;;
20954;SDS011;10636;19.390;-99.256;2023-04-25T01:35:48;9.90;;;8.88;;
20954;SDS011;10636;19.390;-99.256;2023-04-25T01:38:17;11.98;;;8.70;;
20954;SDS011;10636;19.390;-99.256;2023-04-25T01:40:47;9.80;;;8.88;;
20954;SDS011;10636;19.390;-99.256;2023-04-25T01:43:18;9.55;;;8.63;;
20954;SDS011;10636;19.390;-99.256;2023-04-25T01:45:47;9.35;;;8.15;;
20954;SDS011;10636;19.390;-99.256;2023-04-25T01:48:17;10.88;;;8.60;;
20954;SDS011;10636;19.390;-99.256;2023-04-25T01:50:45;9.10;;;8.27;;
20954;SDS011;10636;19.390;-99.256;2023-04-25T01:53:14;9.75;;;8.75;;
20954;SDS011;10636;19.390;-99.256;2023-04-25T01:55:42;11.23;;;8.82;;
20954;SDS011;10636;19.390;-99.256;2023-04-25T01:58:12;8.73;;;7.93;;
20954;SDS011;10636;19.390;-99.256;2023-04-25T02:00:41;8.68;;;7.88;;
20954;SDS011;10636;19.390;-99.256;2023-04-25T02:03:10;9.18;;;8.38;;
20954;SDS011;10636;19.390;-99.256;2023-04-25T02:05:38;8.98;;;8.18;;
20954;SDS011;10636;19.390;-99.256;2023-04-25T02:08:07;8.93;;;8.13;;
20954;SDS011;10636;19.390;-99.256;2023-04-25T02:10:36;8.55;;;7.78;;
20954;SDS011;10636;19.390;-99.256;2023-04-25T02:13:05;10.05;;;8.07;;
20954;SDS011;10636;19.390;-99.256;2023-04-25T02:15:35;8.57;;;7.78;;
20954;SDS011;10636;19.390;-99.256;2023-04-25T02:18:11;8.80;;;7.57;;
20954;SDS011;10636;19.390;-99.256;2023-04-25T02:20:41;8.95;;;8.05;;
20954;SDS011;10636;19.390;-99.256;2023-04-25T02:23:10;8.27;;;7.47;;
20954;SDS011;10636;19.390;-99.256;2023-04-25T02:25:40;8.95;;;8.15;;
20954;SDS011;10636;19.390;-99.256;2023-04-25T02:28:09;9.07;;;8.23;;
20954;SDS011;10636;19.390;-99.256;2023-04-25T02:30:39;9.23;;;8.27;;
20954;SDS011;10636;19.390;-99.256;2023-04-25T02:33:08;10.88;;;8.23;;
20954;SDS011;10636;19.390;-99.256;2023-04-25T02:35:36;10.15;;;9.25;;
20954;SDS011;10636;19.390;-99.256;2023-04-25T02:38:05;9.60;;;8.80;;
20954;SDS011;10636;19.390;-99.256;2023-04-25T02:40:33;10.48;;;9.55;;
20954;SDS011;10636;19.390;-99.256;2023-04-25T02:43:02;9.73;;;8.82;;
20954;SDS011;10636;19.390;-99.256;2023-04-25T02:45:30;9.75;;;8.85;;
20954;SDS011;10636;19.390;-99.256;2023-04-25T02:48:00;10.68;;;8.85;;
20954;SDS011;10636;19.390;-99.256;2023-04-25T02:50:29;9.27;;;8.48;;
20954;SDS011;10636;19.390;-99.256;2023-04-25T02:52:58;9.15;;;8.20;;
20954;SDS011;10636;19.390;-99.256;2023-04-25T02:55:26;9.30;;;8.43;;
20954;SDS011;10636;19.390;-99.256;2023-04-25T02:57:54;8.90;;;8.10;;
20954;SDS011;10636;19.390;-99.256;2023-04-25T03:00:23;8.98;;;8.07;;
20954;SDS011;10636;19.390;-99.256;2023-04-25T03:02:52;8.80;;;7.90;;
20954;SDS011;10636;19.390;-99.256;2023-04-25T03:05:22;8.68;;;7.78;;
20954;SDS011;10636;19.390;-99.256;2023-04-25T03:07:51;8.63;;;7.57;;
20954;SDS011;10636;19.390;-99.256;2023-04-25T03:10:19;9.18;;;8.20;;
20954;SDS011;10636;19.390;-99.256;2023-04-25T03:12:51;9.95;;;8.38;;
20954;SDS011;10636;19.390;-99.256;2023-04-25T03:15:19;8.90;;;8.00;;
20954;SDS011;10636;19.390;-99.256;2023-04-25T03:17:48;7.88;;;7.07;;
20954;SDS011;10636;19.390;-99.256;2023-04-25T03:20:16;8.02;;;7.32;;
20954;SDS011;10636;19.390;-99.256;2023-04-25T03:22:48;8.55;;;7.75;;
20954;SDS011;10636;19.390;-99.256;2023-04-25T03:25:17;9.32;;;7.38;;
20954;SDS011;10636;19.390;-99.256;2023-04-25T03:27:45;8.27;;;7.47;;
20954;SDS011;10636;19.390;-99.256;2023-04-25T03:30:14;8.25;;;7.38;;
20954;SDS011;10636;19.390;-99.256;2023-04-25T03:32:42;8.20;;;7.15;;
20954;SDS011;10636;19.390;-99.256;2023-04-25T03:35:11;8.55;;;7.70;;
20954;SDS011;10636;19.390;-99.256;2023-04-25T03:37:39;9.13;;;7.88;;
20954;SDS011;10636;19.390;-99.256;2023-04-25T03:40:12;8.45;;;7.25;;
20954;SDS011;10636;19.390;-99.256;2023-04-25T03:42:41;8.32;;;7.50;;
20954;SDS011;10636;19.390;-99.256;2023-04-25T03:45:11;8.15;;;7.45;;
20954;SDS011;10636;19.390;-99.256;2023-04-25T03:47:39;8.27;;;7.57;;
20954;SDS011;10636;19.390;-99.256;2023-04-25T03:50:08;8.75;;;7.80;;
20954;SDS011;10636;19.390;-99.256;2023-04-25T03:52:37;8.02;;;7.25;;
20954;SDS011;10636;19.390;-99.256;2023-04-25T03:55:06;8.82;;;7.93;;
20954;SDS011;10636;19.390;-99.256;2023-04-25T03:57:36;8.88;;;7.97;;
20954;SDS011;10636;19.390;-99.256;2023-04-25T04:00:05;8.50;;;7.60;;
20954;SDS011;10636;19.390;-99.256;2023-04-25T04:02:35;8.73;;;7.78;;
20954;SDS011;10636;19.390;-99.256;2023-04-25T04:05:06;8.50;;;7.70;;
20954;SDS011;10636;19.390;-99.256;2023-04-25T04:07:35;8.32;;;7.40;;
20954;SDS011;10636;19.390;-99.256;2023-04-25T04:10:06;8.38;;;7.60;;
20954;SDS011;10636;19.390;-99.256;2023-04-25T04:12:36;8.80;;;8.00;;
20954;SDS011;10636;19.390;-99.256;2023-04-25T04:15:05;8.15;;;7.35;;
20954;SDS011;10636;19.390;-99.256;2023-04-25T04:17:35;8.25;;;7.45;;
20954;SDS011;10636;19.390;-99.256;2023-04-25T04:20:04;8.38;;;7.65;;
20954;SDS011;10636;19.390;-99.256;2023-04-25T04:22:34;8.48;;;7.57;;
20954;SDS011;10636;19.390;-99.256;2023-04-25T04:25:03;8.30;;;7.50;;
20954;SDS011;10636;19.390;-99.256;2023-04-25T04:27:32;8.75;;;7.82;;
20954;SDS011;10636;19.390;-99.256;2023-04-25T04:30:03;8.45;;;7.63;;
20954;SDS011;10636;19.390;-99.256;2023-04-25T04:32:32;8.50;;;7.75;;
20954;SDS011;10636;19.390;-99.256;2023-04-25T04:35:03;8.63;;;7.82;;
20954;SDS011;10636;19.390;-99.256;2023-04-25T04:37:32;8.63;;;7.82;;
20954;SDS011;10636;19.390;-99.256;2023-04-25T04:40:00;8.73;;;7.60;;
20954;SDS011;10636;19.390;-99.256;2023-04-25T04:42:32;7.95;;;7.25;;
20954;SDS011;10636;19.390;-99.256;2023-04-25T04:45:03;8.82;;;7.97;;
20954;SDS011;10636;19.390;-99.256;2023-04-25T04:47:32;9.15;;;7.82;;
20954;SDS011;10636;19.390;-99.256;2023-04-25T04:50:02;8.93;;;8.13;;
20954;SDS011;10636;19.390;-99.256;2023-04-25T04:52:32;8.48;;;7.57;;
20954;SDS011;10636;19.390;-99.256;2023-04-25T04:55:04;8.90;;;8.05;;
20954;SDS011;10636;19.390;-99.256;2023-04-25T04:57:33;9.02;;;8.15;;
20954;SDS011;10636;19.390;-99.256;2023-04-25T05:00:06;8.95;;;7.95;;
20954;SDS011;10636;19.390;-99.256;2023-04-25T05:02:37;8.60;;;7.80;;
20954;SDS011;10636;19.390;-99.256;2023-04-25T05:05:05;9.38;;;8.48;;
20954;SDS011;10636;19.390;-99.256;2023-04-25T05:07:35;9.05;;;8.30;;
20954;SDS011;10636;19.390;-99.256;2023-04-25T05:10:04;9.40;;;8.60;;
20954;SDS011;10636;19.390;-99.256;2023-04-25T05:12:36;9.10;;;8.25;;
20954;SDS011;10636;19.390;-99.256;2023-04-25T05:15:09;9.35;;;8.55;;
20954;SDS011;10636;19.390;-99.256;2023-04-25T05:17:38;9.13;;;8.30;;
20954;SDS011;10636;19.390;-99.256;2023-04-25T05:20:07;9.60;;;8.80;;
20954;SDS011;10636;19.390;-99.256;2023-04-25T05:22:36;10.10;;;8.95;;
20954;SDS011;10636;19.390;-99.256;2023-04-25T05:25:05;9.27;;;8.00;;
20954;SDS011;10636;19.390;-99.256;2023-04-25T05:27:34;9.73;;;8.82;;
20954;SDS011;10636;19.390;-99.256;2023-04-25T05:30:02;10.45;;;9.55;;
20954;SDS011;10636;19.390;-99.256;2023-04-25T05:32:34;9.63;;;8.77;;
20954;SDS011;10636;19.390;-99.256;2023-04-25T05:35:02;9.40;;;8.50;;
20954;SDS011;10636;19.390;-99.256;2023-04-25T05:37:32;9.98;;;9.05;;
20954;SDS011;10636;19.390;-99.256;2023-04-25T05:40:00;10.40;;;9.38;;
20954;SDS011;10636;19.390;-99.256;2023-04-25T05:42:32;10.90;;;9.27;;
20954;SDS011;10636;19.390;-99.256;2023-04-25T05:45:00;9.60;;;8.63;;
20954;SDS011;10636;19.390;-99.256;2023-04-25T05:47:30;9.90;;;9.00;;
20954;SDS011;10636;19.390;-99.256;2023-04-25T05:50:00;9.90;;;8.90;;
20954;SDS011;10636;19.390;-99.256;2023-04-25T05:52:32;10.60;;;9.57;;
20954;SDS011;10636;19.390;-99.256;2023-04-25T05:55:00;9.57;;;8.70;;
20954;SDS011;10636;19.390;-99.256;2023-04-25T05:57:29;10.05;;;9.05;;
20954;SDS011;10636;19.390;-99.256;2023-04-25T05:59:57;9.70;;;8.90;;
20954;SDS011;10636;19.390;-99.256;2023-04-25T06:02:26;10.65;;;9.57;;
20954;SDS011;10636;19.390;-99.256;2023-04-25T06:04:57;10.40;;;9.50;;
20954;SDS011;10636;19.390;-99.256;2023-04-25T06:07:30;9.65;;;8.85;;
20954;SDS011;10636;19.390;-99.256;2023-04-25T06:09:59;10.18;;;9.27;;
20954;SDS011;10636;19.390;-99.256;2023-04-25T06:12:29;9.90;;;9.10;;
20954;SDS011;10636;19.390;-99.256;2023-04-25T06:14:57;9.93;;;9.02;;
20954;SDS011;10636;19.390;-99.256;2023-04-25T06:17:26;10.70;;;9.80;;
20954;SDS011;10636;19.390;-99.256;2023-04-25T06:19:54;10.00;;;9.10;;
20954;SDS011;10636;19.390;-99.256;2023-04-25T06:22:25;10.50;;;9.63;;
20954;SDS011;10636;19.390;-99.256;2023-04-25T06:24:55;9.80;;;8.90;;
20954;SDS011;10636;19.390;-99.256;2023-04-25T06:27:28;9.55;;;8.60;;
20954;SDS011;10636;19.390;-99.256;2023-04-25T06:29:56;9.70;;;8.70;;
20954;SDS011;10636;19.390;-99.256;2023-04-25T06:32:25;10.40;;;9.52;;
20954;SDS011;10636;19.390;-99.256;2023-04-25T06:35:01;9.45;;;8.65;;
20954;SDS011;10636;19.390;-99.256;2023-04-25T06:37:30;10.20;;;9.30;;
20954;SDS011;10636;19.390;-99.256;2023-04-25T06:40:00;10.40;;;9.50;;
20954;SDS011;10636;19.390;-99.256;2023-04-25T06:42:28;10.00;;;9.00;;
20954;SDS011;10636;19.390;-99.256;2023-04-25T06:44:57;9.60;;;8.70;;
20954;SDS011;10636;19.390;-99.256;2023-04-25T06:47:25;10.38;;;9.48;;
20954;SDS011;10636;19.390;-99.256;2023-04-25T06:49:55;10.27;;;9.38;;
20954;SDS011;10636;19.390;-99.256;2023-04-25T06:52:23;9.70;;;8.90;;
20954;SDS011;10636;19.390;-99.256;2023-04-25T06:54:52;10.13;;;9.10;;
20954;SDS011;10636;19.390;-99.256;2023-04-25T06:57:22;9.93;;;9.02;;
20954;SDS011;10636;19.390;-99.256;2023-04-25T06:59:51;9.38;;;8.68;;
20954;SDS011;10636;19.390;-99.256;2023-04-25T07:02:19;10.50;;;9.60;;
20954;SDS011;10636;19.390;-99.256;2023-04-25T07:04:48;10.00;;;9.13;;
20954;SDS011;10636;19.390;-99.256;2023-04-25T07:07:16;9.45;;;8.57;;
20954;SDS011;10636;19.390;-99.256;2023-04-25T07:09:48;9.88;;;8.98;;
20954;SDS011;10636;19.390;-99.256;2023-04-25T07:12:16;9.18;;;8.32;;
20954;SDS011;10636;19.390;-99.256;2023-04-25T07:14:46;10.30;;;9.35;;
20954;SDS011;10636;19.390;-99.256;2023-04-25T07:17:17;10.00;;;9.00;;
20954;SDS011;10636;19.390;-99.256;2023-04-25T07:19:46;10.40;;;9.30;;
20954;SDS011;10636;19.390;-99.256;2023-04-25T07:22:15;9.95;;;8.93;;
20954;SDS011;10636;19.390;-99.256;2023-04-25T07:24:43;9.52;;;8.73;;
20954;SDS011;10636;19.390;-99.256;2023-04-25T07:27:14;9.80;;;8.80;;
20954;SDS011;10636;19.390;-99.256;2023-04-25T07:29:42;9.57;;;8.65;;
20954;SDS011;10636;19.390;-99.256;2023-04-25T07:32:13;10.00;;;9.00;;
20954;SDS011;10636;19.390;-99.256;2023-04-25T07:34:41;9.95;;;8.95;;
20954;SDS011;10636;19.390;-99.256;2023-04-25T07:37:10;9.88;;;8.93;;
20954;SDS011;10636;19.390;-99.256;2023-04-25T07:39:39;9.90;;;9.00;;
20954;SDS011;10636;19.390;-99.256;2023-04-25T07:42:08;9.35;;;8.52;;
20954;SDS011;10636;19.390;-99.256;2023-04-25T07:44:36;9.63;;;8.73;;
20954;SDS011;10636;19.390;-99.256;2023-04-25T07:47:05;9.45;;;8.65;;
20954;SDS011;10636;19.390;-99.256;2023-04-25T07:49:36;9.52;;;8.73;;
20954;SDS011;10636;19.390;-99.256;2023-04-25T07:52:05;10.13;;;9.05;;
20954;SDS011;10636;19.390;-99.256;2023-04-25T07:54:34;9.70;;;8.80;;
20954;SDS011;10636;19.390;-99.256;2023-04-25T07:57:02;10.07;;;9.18;;
20954;SDS011;10636;19.390;-99.256;2023-04-25T07:59:32;9.88;;;9.02;;
20954;SDS011;10636;19.390;-99.256;2023-04-25T08:02:00;9.60;;;8.70;;
20954;SDS011;10636;19.390;-99.256;2023-04-25T08:04:29;9.43;;;8.57;;
20954;SDS011;10636;19.390;-99.256;2023-04-25T08:06:59;9.85;;;8.95;;
20954;SDS011;10636;19.390;-99.256;2023-04-25T08:09:28;10.05;;;8.60;;
20954;SDS011;10636;19.390;-99.256;2023-04-25T08:12:00;9.38;;;8.48;;
20954;SDS011;10636;19.390;-99.256;2023-04-25T08:14:28;9.07;;;8.23;;
20954;SDS011;10636;19.390;-99.256;2023-04-25T08:17:01;9.50;;;8.60;;
20954;SDS011;10636;19.390;-99.256;2023-04-25T08:19:30;9.35;;;8.50;;
20954;SDS011;10636;19.390;-99.256;2023-04-25T08:22:00;9.30;;;8.40;;
20954;SDS011;10636;19.390;-99.256;2023-04-25T08:24:29;9.05;;;8.20;;
20954;SDS011;10636;19.390;-99.256;2023-04-25T08:27:00;9.95;;;9.05;;
20954;SDS011;10636;19.390;-99.256;2023-04-25T08:29:28;9.20;;;8.40;;
20954;SDS011;10636;19.390;-99.256;2023-04-25T08:31:57;9.75;;;8.75;;
20954;SDS011;10636;19.390;-99.256;2023-04-25T08:34:28;9.75;;;8.75;;
20954;SDS011;10636;19.390;-99.256;2023-04-25T08:36:56;9.98;;;8.45;;
20954;SDS011;10636;19.390;-99.256;2023-04-25T08:39:26;9.20;;;8.40;;
20954;SDS011;10636;19.390;-99.256;2023-04-25T08:41:55;8.68;;;7.88;;
20954;SDS011;10636;19.390;-99.256;2023-04-25T08:44:24;9.20;;;8.27;;
20954;SDS011;10636;19.390;-99.256;2023-04-25T08:46:53;9.70;;;8.55;;
20954;SDS011;10636;19.390;-99.256;2023-04-25T08:49:24;9.57;;;8.25;;
20954;SDS011;10636;19.390;-99.256;2023-04-25T08:51:53;9.60;;;8.77;;
20954;SDS011;10636;19.390;-99.256;2023-04-25T08:54:28;9.40;;;8.60;;
20954;SDS011;10636;19.390;-99.256;2023-04-25T08:57:00;9.60;;;8.75;;
20954;SDS011;10636;19.390;-99.256;2023-04-25T08:59:30;9.45;;;8.55;;
20954;SDS011;10636;19.390;-99.256;2023-04-25T09:02:03;9.20;;;8.40;;
20954;SDS011;10636;19.390;-99.256;2023-04-25T09:04:31;9.60;;;8.70;;
20954;SDS011;10636;19.390;-99.256;2023-04-25T09:07:00;9.18;;;8.27;;
20954;SDS011;10636;19.390;-99.256;2023-04-25T09:09:30;9.60;;;8.65;;
20954;SDS011;10636;19.390;-99.256;2023-04-25T09:11:58;9.20;;;8.40;;
20954;SDS011;10636;19.390;-99.256;2023-04-25T09:14:29;9.43;;;8.52;;
20954;SDS011;10636;19.390;-99.256;2023-04-25T09:17:01;9.50;;;8.70;;
20954;SDS011;10636;19.390;-99.256;2023-04-25T09:19:34;9.40;;;8.60;;
20954;SDS011;10636;19.390;-99.256;2023-04-25T09:22:05;9.02;;;8.02;;
20954;SDS011;10636;19.390;-99.256;2023-04-25T09:24:39;9.52;;;8.63;;
20954;SDS011;10636;19.390;-99.256;2023-04-25T09:27:09;9.35;;;8.45;;
20954;SDS011;10636;19.390;-99.256;2023-04-25T09:29:39;8.73;;;7.88;;
20954;SDS011;10636;19.390;-99.256;2023-04-25T09:32:12;9.63;;;8.70;;
20954;SDS011;10636;19.390;-99.256;2023-04-25T09:34:42;9.00;;;8.20;;
20954;SDS011;10636;19.390;-99.256;2023-04-25T09:37:16;10.45;;;8.82;;
20954;SDS011;10636;19.390;-99.256;2023-04-25T09:39:48;8.80;;;8.00;;
20954;SDS011;10636;19.390;-99.256;2023-04-25T09:42:21;9.25;;;8.23;;
20954;SDS011;10636;19.390;-99.256;2023-04-25T09:44:51;9.55;;;8.65;;
20954;SDS011;10636;19.390;-99.256;2023-04-25T09:47:21;9.07;;;8.18;;
20954;SDS011;10636;19.390;-99.256;2023-04-25T09:49:51;9.48;;;8.57;;
20954;SDS011;10636;19.390;-99.256;2023-04-25T09:52:21;9.30;;;8.50;;
20954;SDS011;10636;19.390;-99.256;2023-04-25T09:54:54;9.25;;;8.45;;
20954;SDS011;10636;19.390;-99.256;2023-04-25T09:57:23;9.23;;;8.32;;
20954;SDS011;10636;19.390;-99.256;2023-04-25T09:59:52;9.77;;;8.88;;
20954;SDS011;10636;19.390;-99.256;2023-04-25T10:02:22;9.73;;;8.90;;
20954;SDS011;10636;19.390;-99.256;2023-04-25T10:04:51;9.43;;;8.68;;
20954;SDS011;10636;19.390;-99.256;2023-04-25T10:07:22;9.60;;;8.65;;
20954;SDS011;10636;19.390;-99.256;2023-04-25T10:09:54;9.60;;;8.70;;
20954;SDS011;10636;19.390;-99.256;2023-04-25T10:12:27;10.20;;;9.30;;
20954;SDS011;10636;19.390;-99.256;2023-04-25T10:14:56;10.10;;;8.70;;
20954;SDS011;10636;19.390;-99.256;2023-04-25T10:17:26;10.10;;;9.10;;
20954;SDS011;10636;19.390;-99.256;2023-04-25T10:19:55;9.77;;;8.88;;
20954;SDS011;10636;19.390;-99.256;2023-04-25T10:22:28;9.88;;;8.98;;
20954;SDS011;10636;19.390;-99.256;2023-04-25T10:25:02;9.70;;;8.80;;
20954;SDS011;10636;19.390;-99.256;2023-04-25T10:27:32;9.82;;;8.82;;
20954;SDS011;10636;19.390;-99.256;2023-04-25T10:30:01;9.82;;;8.93;;
20954;SDS011;10636;19.390;-99.256;2023-04-25T10:32:31;10.30;;;9.32;;
20954;SDS011;10636;19.390;-99.256;2023-04-25T10:35:10;10.15;;;9.20;;
20954;SDS011;10636;19.390;-99.256;2023-04-25T10:40:34;9.90;;;9.10;;
20954;SDS011;10636;19.390;-99.256;2023-04-25T10:46:13;10.48;;;9.48;;
20954;SDS011;10636;19.390;-99.256;2023-04-25T10:48:47;9.82;;;8.98;;
20954;SDS011;10636;19.390;-99.256;2023-04-25T10:51:17;10.18;;;9.25;;
20954;SDS011;10636;19.390;-99.256;2023-04-25T10:53:47;10.20;;;9.30;;
20954;SDS011;10636;19.390;-99.256;2023-04-25T10:56:27;9.93;;;9.00;;
20954;SDS011;10636;19.390;-99.256;2023-04-25T10:59:03;9.98;;;9.07;;
20954;SDS011;10636;19.390;-99.256;2023-04-25T11:01:38;10.15;;;9.15;;
20954;SDS011;10636;19.390;-99.256;2023-04-25T11:04:19;10.40;;;9.35;;
20954;SDS011;10636;19.390;-99.256;2023-04-25T11:06:53;10.50;;;9.40;;
20954;SDS011;10636;19.390;-99.256;2023-04-25T11:09:33;9.13;;;8.30;;
20954;SDS011;10636;19.390;-99.256;2023-04-25T11:12:03;9.75;;;8.80;;
20954;SDS011;10636;19.390;-99.256;2023-04-25T11:14:35;9.65;;;8.85;;
20954;SDS011;10636;19.390;-99.256;2023-04-25T11:17:03;9.93;;;8.95;;
20954;SDS011;10636;19.390;-99.256;2023-04-25T11:19:33;9.77;;;8.88;;
20954;SDS011;10636;19.390;-99.256;2023-04-25T11:22:02;10.13;;;9.20;;
20954;SDS011;10636;19.390;-99.256;2023-04-25T11:24:32;10.15;;;9.25;;
20954;SDS011;10636;19.390;-99.256;2023-04-25T11:27:03;9.77;;;8.88;;
20954;SDS011;10636;19.390;-99.256;2023-04-25T11:29:33;9.32;;;8.52;;
20954;SDS011;10636;19.390;-99.256;2023-04-25T11:32:02;10.25;;;9.25;;
20954;SDS011;10636;19.390;-99.256;2023-04-25T11:34:31;9.88;;;9.00;;
20954;SDS011;10636;19.390;-99.256;2023-04-25T11:37:01;10.00;;;9.00;;
20954;SDS011;10636;19.390;-99.256;2023-04-25T11:39:31;9.80;;;8.90;;
20954;SDS011;10636;19.390;-99.256;2023-04-25T11:42:00;10.05;;;9.13;;
20954;SDS011;10636;19.390;-99.256;2023-04-25T11:44:30;10.73;;;9.73;;
20954;SDS011;10636;19.390;-99.256;2023-04-25T11:46:59;11.05;;;10.07;;
20954;SDS011;10636;19.390;-99.256;2023-04-25T11:49:30;10.85;;;9.85;;
20954;SDS011;10636;19.390;-99.256;2023-04-25T11:51:58;11.63;;;9.95;;
20954;SDS011;10636;19.390;-99.256;2023-04-25T11:54:27;11.30;;;10.10;;
20954;SDS011;10636;19.390;-99.256;2023-04-25T11:56:55;10.63;;;9.63;;
20954;SDS011;10636;19.390;-99.256;2023-04-25T11:59:24;11.55;;;10.45;;
20954;SDS011;10636;19.390;-99.256;2023-04-25T12:01:55;11.35;;;10.35;;
20954;SDS011;10636;19.390;-99.256;2023-04-25T12:04:29;11.52;;;10.32;;
20954;SDS011;10636;19.390;-99.256;2023-04-25T12:06:59;11.40;;;10.27;;
20954;SDS011;10636;19.390;-99.256;2023-04-25T12:09:28;13.10;;;11.80;;
20954;SDS011;10636;19.390;-99.256;2023-04-25T12:11:58;13.50;;;12.25;;
20954;SDS011;10636;19.390;-99.256;2023-04-25T12:14:29;14.52;;;11.77;;
20954;SDS011;10636;19.390;-99.256;2023-04-25T12:17:01;12.55;;;11.40;;
20954;SDS011;10636;19.390;-99.256;2023-04-25T12:19:32;14.13;;;11.30;;
20954;SDS011;10636;19.390;-99.256;2023-04-25T12:22:01;12.25;;;11.07;;
20954;SDS011;10636;19.390;-99.256;2023-04-25T12:24:32;12.65;;;11.45;;
20954;SDS011;10636;19.390;-99.256;2023-04-25T12:27:03;12.07;;;10.88;;
20954;SDS011;10636;19.390;-99.256;2023-04-25T12:29:33;12.43;;;11.23;;
20954;SDS011;10636;19.390;-99.256;2023-04-25T12:32:04;12.00;;;10.52;;
20954;SDS011;10636;19.390;-99.256;2023-04-25T12:34:33;11.40;;;10.20;;
20954;SDS011;10636;19.390;-99.256;2023-04-25T12:37:01;12.27;;;10.30;;
20954;SDS011;10636;19.390;-99.256;2023-04-25T12:39:30;13.10;;;10.52;;
20954;SDS011;10636;19.390;-99.256;2023-04-25T12:41:59;12.30;;;10.60;;
20954;SDS011;10636;19.390;-99.256;2023-04-25T12:44:27;12.13;;;10.55;;
20954;SDS011;10636;19.390;-99.256;2023-04-25T12:46:56;12.52;;;10.45;;
20954;SDS011;10636;19.390;-99.256;2023-04-25T12:49:27;11.35;;;10.25;;
20954;SDS011;10636;19.390;-99.256;2023-04-25T12:51:55;12.00;;;10.18;;
20954;SDS011;10636;19.390;-99.256;2023-04-25T12:54:23;12.82;;;10.23;;
20954;SDS011;10636;19.390;-99.256;2023-04-25T12:56:52;12.25;;;10.77;;
20954;SDS011;10636;19.390;-99.256;2023-04-25T12:59:21;11.57;;;10.38;;
20954;SDS011;10636;19.390;-99.256;2023-04-25T13:01:49;10.93;;;9.80;;
20954;SDS011;10636;19.390;-99.256;2023-04-25T13:04:18;12.35;;;11.05;;
20954;SDS011;10636;19.390;-99.256;2023-04-25T13:06:48;12.13;;;10.93;;
20954;SDS011;10636;19.390;-99.256;2023-04-25T13:09:17;12.35;;;10.85;;
20954;SDS011;10636;19.390;-99.256;2023-04-25T13:11:46;14.05;;;10.75;;
20954;SDS011;10636;19.390;-99.256;2023-04-25T13:14:14;12.63;;;11.32;;
20954;SDS011;10636;19.390;-99.256;2023-04-25T13:16:43;12.57;;;10.80;;
20954;SDS011;10636;19.390;-99.256;2023-04-25T13:19:11;12.82;;;10.88;;
20954;SDS011;10636;19.390;-99.256;2023-04-25T13:21:40;12.60;;;11.30;;
20954;SDS011;10636;19.390;-99.256;2023-04-25T13:24:10;13.55;;;12.13;;
20954;SDS011;10636;19.390;-99.256;2023-04-25T13:26:38;13.00;;;11.75;;
20954;SDS011;10636;19.390;-99.256;2023-04-25T13:29:07;13.55;;;11.75;;
20954;SDS011;10636;19.390;-99.256;2023-04-25T13:31:35;14.07;;;12.63;;
20954;SDS011;10636;19.390;-99.256;2023-04-25T13:34:04;13.18;;;11.70;;
20954;SDS011;10636;19.390;-99.256;2023-04-25T13:36:32;13.85;;;12.30;;
20954;SDS011;10636;19.390;-99.256;2023-04-25T13:39:01;14.52;;;12.60;;
20954;SDS011;10636;19.390;-99.256;2023-04-25T13:41:32;14.32;;;12.10;;
20954;SDS011;10636;19.390;-99.256;2023-04-25T13:44:00;16.33;;;13.07;;
20954;SDS011;10636;19.390;-99.256;2023-04-25T13:46:29;13.82;;;12.45;;
20954;SDS011;10636;19.390;-99.256;2023-04-25T13:48:58;14.35;;;12.63;;
20954;SDS011;10636;19.390;-99.256;2023-04-25T13:51:28;14.20;;;12.75;;
20954;SDS011;10636;19.390;-99.256;2023-04-25T13:53:56;13.52;;;11.80;;
20954;SDS011;10636;19.390;-99.256;2023-04-25T13:56:25;16.60;;;13.18;;
20954;SDS011;10636;19.390;-99.256;2023-04-25T13:58:56;13.82;;;12.40;;
20954;SDS011;10636;19.390;-99.256;2023-04-25T14:01:24;14.93;;;13.38;;
20954;SDS011;10636;19.390;-99.256;2023-04-25T14:03:53;14.00;;;12.60;;
20954;SDS011;10636;19.390;-99.256;2023-04-25T14:06:22;15.07;;;12.15;;
20954;SDS011;10636;19.390;-99.256;2023-04-25T14:08:50;14.88;;;12.73;;
20954;SDS011;10636;19.390;-99.256;2023-04-25T14:11:19;14.63;;;12.55;;
20954;SDS011;10636;19.390;-99.256;2023-04-25T14:13:48;14.23;;;12.40;;
20954;SDS011;10636;19.390;-99.256;2023-04-25T14:16:18;15.20;;;12.80;;
20954;SDS011;10636;19.390;-99.256;2023-04-25T14:18:48;14.23;;;12.68;;
20954;SDS011;10636;19.390;-99.256;2023-04-25T14:21:16;15.93;;;13.38;;
20954;SDS011;10636;19.390;-99.256;2023-04-25T14:23:45;15.32;;;13.73;;
20954;SDS011;10636;19.390;-99.256;2023-04-25T14:26:14;14.52;;;12.70;;
20954;SDS011;10636;19.390;-99.256;2023-04-25T14:28:43;13.35;;;11.98;;
20954;SDS011;10636;19.390;-99.256;2023-04-25T14:31:11;13.82;;;12.18;;
20954;SDS011;10636;19.390;-99.256;2023-04-25T14:33:41;12.80;;;11.05;;